createdAt,value
2022-10-11T00:01:10.404Z,2.17
2022-10-11T00:05:12.341Z,1.52
2022-10-11T00:09:16.087Z,2.08
2022-10-11T00:13:17.930Z,2.33
2022-10-11T00:17:19.765Z,2.40
2022-10-11T00:21:21.793Z,1.50
2022-10-11T00:25:23.642Z,1.85
2022-10-11T00:29:25.376Z,1.52
2022-10-11T00:33:27.220Z,2.08
2022-10-11T00:37:28.996Z,2.90
2022-10-11T00:41:30.793Z,3.53
2022-10-11T00:45:32.491Z,2.55
2022-10-11T00:49:38.202Z,3.00
2022-10-11T00:53:41.075Z,2.20
2022-10-11T00:57:48.258Z,2.45
2022-10-11T01:05:51.970Z,1.60
2022-10-11T01:09:53.898Z,1.73
2022-10-11T01:14:04.960Z,2.08
2022-10-11T01:18:28.623Z,1.35
2022-10-11T01:22:48.871Z,2.03
2022-10-11T01:27:14.353Z,1.83
2022-10-11T01:31:28.676Z,1.73
2022-10-11T01:35:43.722Z,1.67
2022-10-11T01:39:59.885Z,2.15
2022-10-11T01:44:02.478Z,2.67
2022-10-11T01:48:07.855Z,2.78
2022-10-11T01:52:10.934Z,3.40
2022-10-11T01:56:26.038Z,2.33
2022-10-11T02:00:39.371Z,2.42
2022-10-11T02:04:48.820Z,4.43
2022-10-11T02:09:04.384Z,2.47
2022-10-11T02:13:26.491Z,2.95
2022-10-11T02:17:34.440Z,4.22
2022-10-11T02:21:39.629Z,4.18
2022-10-11T02:25:43.744Z,4.00
2022-10-11T02:29:48.336Z,5.32
2022-10-11T02:33:58.821Z,4.05
2022-10-11T02:38:23.499Z,5.03
2022-10-11T02:42:33.972Z,6.18
2022-10-11T02:46:37.883Z,3.47
2022-10-11T02:50:40.527Z,3.70
2022-10-11T02:54:42.315Z,6.10
2022-10-11T02:58:44.298Z,3.75
2022-10-11T03:02:46.453Z,3.65
2022-10-11T03:06:48.426Z,4.38
2022-10-11T03:10:50.533Z,3.58
2022-10-11T03:14:53.114Z,2.92
2022-10-11T03:18:55.090Z,2.65
2022-10-11T03:22:57.230Z,2.25
2022-10-11T03:26:59.257Z,4.57
2022-10-11T03:31:01.309Z,2.80
2022-10-11T03:35:04.247Z,2.53
2022-10-11T03:39:06.469Z,2.95
2022-10-11T03:43:08.952Z,1.75
2022-10-11T03:47:11.096Z,2.65
2022-10-11T03:51:13.255Z,4.25
2022-10-11T03:55:15.161Z,10.32
2022-10-11T03:59:17.174Z,12.38
2022-10-11T04:03:19.219Z,9.32
2022-10-11T04:07:21.116Z,7.80
2022-10-11T04:11:23.446Z,10.23
2022-10-11T04:15:25.455Z,5.28
2022-10-11T04:19:27.819Z,4.68
2022-10-11T04:23:32.785Z,5.40
2022-10-11T04:27:35.194Z,4.50
2022-10-11T04:31:37.037Z,3.13
2022-10-11T04:35:39.244Z,4.78
2022-10-11T04:39:41.334Z,7.93
2022-10-11T04:43:43.413Z,4.85
2022-10-11T04:47:45.429Z,6.07
2022-10-11T04:51:47.361Z,5.80
2022-10-11T04:56:03.968Z,8.43
2022-10-11T05:00:07.054Z,4.60
2022-10-11T05:04:09.009Z,5.38
2022-10-11T05:08:11.366Z,6.78
2022-10-11T05:12:13.244Z,4.28
2022-10-11T05:16:16.484Z,5.07
2022-10-11T05:20:18.644Z,6.35
2022-10-11T05:24:20.530Z,6.05
2022-10-11T05:28:22.589Z,4.53
2022-10-11T05:32:27.760Z,5.95
2022-10-11T05:36:30.029Z,5.80
2022-10-11T05:40:33.399Z,5.57
2022-10-11T05:44:35.350Z,4.70
2022-10-11T05:48:37.229Z,4.30
2022-10-11T05:52:39.045Z,4.85
2022-10-11T05:56:40.891Z,5.32
2022-10-11T06:00:42.839Z,9.27
2022-10-11T06:04:44.827Z,4.80
2022-10-11T06:08:47.762Z,7.75
2022-10-11T06:12:49.798Z,4.20
2022-10-11T06:16:51.766Z,5.95
2022-10-11T06:20:53.579Z,6.80
2022-10-11T06:24:55.447Z,4.85
2022-10-11T06:28:59.021Z,7.95
2022-10-11T06:33:04.613Z,6.60
2022-10-11T06:37:06.911Z,5.47
2022-10-11T06:41:20.688Z,4.45
2022-10-11T06:45:22.546Z,3.20
2022-10-11T06:49:24.383Z,4.18
2022-10-11T06:53:27.193Z,5.28
2022-10-11T06:57:29.470Z,6.60
2022-10-11T07:01:32.773Z,5.70
2022-10-11T07:05:35.283Z,8.30
2022-10-11T07:09:37.202Z,8.25
2022-10-11T07:13:40.686Z,7.03
2022-10-11T07:17:42.563Z,8.88
2022-10-11T07:21:44.503Z,6.85
2022-10-11T07:25:46.877Z,6.97
2022-10-11T07:29:48.950Z,8.88
2022-10-11T07:33:50.896Z,10.15
2022-10-11T07:37:52.689Z,9.57
2022-10-11T07:41:54.604Z,8.35
2022-10-11T07:45:57.156Z,6.70
2022-10-11T07:49:59.029Z,8.82
2022-10-11T07:54:06.135Z,9.70
2022-10-11T07:58:11.079Z,7.93
2022-10-11T08:02:13.733Z,10.27
2022-10-11T08:06:18.125Z,10.45
2022-10-11T08:10:20.363Z,7.93
2022-10-11T08:14:22.175Z,9.48
2022-10-11T08:18:24.643Z,8.02
2022-10-11T08:22:26.497Z,13.13
2022-10-11T08:26:28.378Z,13.13
2022-10-11T08:30:30.253Z,10.65
2022-10-11T08:34:32.372Z,8.73
2022-10-11T08:38:36.982Z,6.90
2022-10-11T08:42:45.914Z,11.13
2022-10-11T08:46:55.806Z,9.20
2022-10-11T08:51:06.774Z,9.05
2022-10-11T08:55:19.296Z,10.77
2022-10-11T08:59:37.695Z,8.82
2022-10-11T09:03:43.212Z,9.13
2022-10-11T09:08:09.863Z,7.85
2022-10-11T09:12:11.667Z,7.05
2022-10-11T09:16:19.536Z,6.25
2022-10-11T09:20:33.441Z,7.22
2022-10-11T09:25:16.780Z,12.25
2022-10-11T09:29:31.995Z,12.05
2022-10-11T09:33:38.866Z,6.68
2022-10-11T09:38:08.551Z,7.00
2022-10-11T09:42:12.066Z,7.35
2022-10-11T09:46:31.859Z,6.90
2022-10-11T09:50:34.423Z,9.57
2022-10-11T09:54:45.185Z,12.32
2022-10-11T09:58:47.687Z,13.70
2022-10-11T10:02:55.445Z,12.00
2022-10-11T10:07:10.904Z,9.57
2022-10-11T10:11:14.333Z,6.22
2022-10-11T10:15:19.832Z,9.63
2022-10-11T10:19:22.027Z,7.50
2022-10-11T10:23:27.829Z,9.27
2022-10-11T10:27:31.365Z,7.75
2022-10-11T10:36:20.042Z,14.15
2022-10-11T10:40:27.965Z,10.90
2022-10-11T10:44:29.873Z,8.38
2022-10-11T10:49:28.319Z,10.38
2022-10-11T10:53:32.317Z,12.10
2022-10-11T10:57:53.077Z,11.10
2022-10-11T11:02:39.015Z,9.77
2022-10-11T11:06:51.497Z,12.07
2022-10-11T11:11:00.749Z,8.30
2022-10-11T11:15:32.113Z,10.02
2022-10-11T11:19:47.860Z,10.20
2022-10-11T11:24:03.532Z,7.13
2022-10-11T11:28:47.163Z,5.43
2022-10-11T11:32:54.869Z,3.97
2022-10-11T11:37:00.510Z,11.48
2022-10-11T11:41:09.205Z,7.72
2022-10-11T11:45:14.106Z,6.55
2022-10-11T11:49:37.061Z,5.30
2022-10-11T11:54:09.737Z,3.75
2022-10-11T11:58:29.904Z,3.90
2022-10-11T12:02:37.091Z,4.55
2022-10-11T12:06:52.456Z,3.50
2022-10-11T12:11:02.371Z,2.70
2022-10-11T12:15:19.680Z,3.55
2022-10-11T12:19:21.578Z,7.50
2022-10-11T12:23:29.518Z,2.80
2022-10-11T12:27:40.392Z,4.10
2022-10-11T12:31:46.121Z,3.40
2022-10-11T12:35:54.216Z,3.23
2022-10-11T12:39:57.902Z,2.30
2022-10-11T12:44:22.271Z,2.90
2022-10-11T12:48:52.704Z,2.90
2022-10-11T12:53:09.708Z,4.07
2022-10-11T12:57:29.994Z,4.05
2022-10-11T13:01:48.684Z,5.60
2022-10-11T13:05:53.880Z,4.93
2022-10-11T13:09:55.763Z,4.30
2022-10-11T13:14:01.229Z,3.45
2022-10-11T13:18:03.159Z,2.13
2022-10-11T13:22:19.081Z,4.88
2022-10-11T13:26:21.421Z,2.67
2022-10-11T13:30:30.411Z,3.22
2022-10-11T13:34:38.902Z,2.90
2022-10-11T13:38:40.946Z,3.60
2022-10-11T13:42:43.491Z,3.15
2022-10-11T13:46:45.788Z,3.33
2022-10-11T13:51:07.761Z,3.33
2022-10-11T13:55:23.548Z,5.47
2022-10-11T13:59:28.162Z,3.03
2022-10-11T14:03:40.518Z,2.80
2022-10-11T14:07:42.340Z,3.10
2022-10-11T14:11:44.189Z,6.93
2022-10-11T14:15:46.003Z,3.08
2022-10-11T14:20:14.813Z,4.07
2022-10-11T14:24:17.920Z,3.67
2022-10-11T14:28:19.753Z,5.95
2022-10-11T14:32:29.694Z,5.25
2022-10-11T14:36:31.682Z,4.50
2022-10-11T14:40:33.491Z,2.67
2022-10-11T14:44:35.350Z,3.70
2022-10-11T14:48:54.357Z,3.33
2022-10-11T14:52:58.205Z,3.83
2022-10-11T14:57:02.514Z,4.10
2022-10-11T15:01:04.365Z,18.90
2022-10-11T15:05:06.670Z,11.75
2022-10-11T15:09:08.690Z,5.72
2022-10-11T15:13:10.675Z,5.57
2022-10-11T15:17:12.563Z,4.05
2022-10-11T15:21:14.627Z,3.25
2022-10-11T15:25:16.764Z,12.88
2022-10-11T15:29:18.912Z,10.00
2022-10-11T15:33:21.547Z,4.70
2022-10-11T15:37:23.348Z,4.70
2022-10-11T15:41:25.208Z,4.13
2022-10-11T15:45:27.772Z,4.40
2022-10-11T15:49:29.590Z,9.38
2022-10-11T15:53:32.352Z,3.67
2022-10-11T15:57:34.118Z,3.05
2022-10-11T16:01:35.969Z,1.75
2022-10-11T16:05:37.803Z,2.88
2022-10-11T16:09:39.600Z,4.95
2022-10-11T16:13:41.597Z,4.43
2022-10-11T16:17:43.448Z,5.28
2022-10-11T16:21:45.221Z,7.22
2022-10-11T16:25:55.937Z,7.88
2022-10-11T16:29:58.030Z,7.43
2022-10-11T16:33:59.865Z,6.22
2022-10-11T16:38:01.760Z,5.07
2022-10-11T16:42:03.581Z,5.20
2022-10-11T16:46:05.757Z,7.00
2022-10-11T16:50:08.459Z,8.10
2022-10-11T16:54:10.379Z,4.40
2022-10-11T16:58:12.254Z,7.13
2022-10-11T17:02:16.787Z,5.40
2022-10-11T17:06:19.772Z,6.10
2022-10-11T17:10:39.251Z,5.60
2022-10-11T17:14:42.024Z,5.53
2022-10-11T17:18:44.192Z,7.85
2022-10-11T17:22:46.032Z,5.55
2022-10-11T17:26:47.742Z,5.82
2022-10-11T17:30:57.097Z,4.65
2022-10-11T17:35:01.908Z,6.13
2022-10-11T17:39:06.792Z,4.78
2022-10-11T17:43:09.252Z,6.22
2022-10-11T17:47:11.085Z,5.45
2022-10-11T17:51:17.961Z,6.05
2022-10-11T17:55:19.924Z,10.43
2022-10-11T17:59:22.345Z,6.07
2022-10-11T18:03:23.993Z,4.35
2022-10-11T18:07:25.766Z,6.72
2022-10-11T18:11:27.573Z,7.75
2022-10-11T18:15:30.667Z,10.15
2022-10-11T18:19:32.441Z,5.30
2022-10-11T18:23:35.458Z,6.18
2022-10-11T18:27:37.195Z,7.25
2022-10-11T18:31:40.151Z,7.45
2022-10-11T18:35:42.062Z,8.00
2022-10-11T18:39:43.889Z,10.35
2022-10-11T18:43:50.089Z,8.23
2022-10-11T18:47:51.911Z,11.17
2022-10-11T18:51:54.744Z,7.05
2022-10-11T18:56:04.061Z,7.50
2022-10-11T19:00:16.972Z,8.35
2022-10-11T19:04:28.569Z,7.53
2022-10-11T19:08:30.478Z,8.90
2022-10-11T19:12:32.203Z,9.45
2022-10-11T19:16:37.669Z,8.63
2022-10-11T19:20:39.449Z,6.75
2022-10-11T19:24:43.613Z,7.50
2022-10-11T19:28:45.851Z,10.00
2022-10-11T19:32:47.740Z,7.50
2022-10-11T19:36:53.297Z,6.50
2022-10-11T19:40:55.389Z,4.53
2022-10-11T19:44:57.053Z,4.80
2022-10-11T19:48:59.975Z,5.40
2022-10-11T19:53:01.753Z,6.90
2022-10-11T19:57:03.636Z,6.82
2022-10-11T20:01:10.002Z,7.43
2022-10-11T20:05:11.771Z,6.23
2022-10-11T20:09:30.575Z,7.85
2022-10-11T20:13:35.029Z,8.98
2022-10-11T20:17:49.288Z,9.15
2022-10-11T20:21:52.135Z,9.90
2022-10-11T20:26:18.585Z,6.32
2022-10-11T20:30:20.468Z,8.65
2022-10-11T20:34:22.439Z,4.30
2022-10-11T20:38:24.348Z,4.95
2022-10-11T20:42:29.694Z,8.35
2022-10-11T20:46:34.531Z,6.18
2022-10-11T20:50:36.179Z,5.18
2022-10-11T20:54:37.944Z,4.70
2022-10-11T20:58:40.613Z,4.63
2022-10-11T21:02:42.271Z,7.80
2022-10-11T21:06:44.058Z,7.40
2022-10-11T21:11:11.565Z,5.18
2022-10-11T21:15:13.430Z,3.92
2022-10-11T21:19:15.378Z,4.90
2022-10-11T21:23:18.887Z,3.85
2022-10-11T21:27:20.527Z,6.13
2022-10-11T21:31:22.932Z,6.93
2022-10-11T21:35:25.798Z,7.95
2022-10-11T21:39:27.443Z,7.03
2022-10-11T21:43:29.139Z,5.65
2022-10-11T21:47:31.473Z,9.70
2022-10-11T21:51:33.389Z,4.13
2022-10-11T21:55:35.042Z,4.65
2022-10-11T21:59:36.700Z,6.32
2022-10-11T22:03:38.394Z,6.53
2022-10-11T22:07:40.031Z,4.57
2022-10-11T22:11:41.702Z,4.32
2022-10-11T22:15:43.409Z,4.82
2022-10-11T22:19:45.085Z,5.05
2022-10-11T22:23:48.979Z,4.78
2022-10-11T22:27:50.631Z,5.50
2022-10-11T22:31:52.360Z,6.47
2022-10-11T22:35:55.884Z,7.82
2022-10-11T22:39:57.531Z,8.60
2022-10-11T22:43:59.167Z,4.15
2022-10-11T22:48:00.834Z,4.65
2022-10-11T22:52:02.589Z,5.32
2022-10-11T22:56:04.460Z,3.78
2022-10-11T23:00:06.954Z,5.80
2022-10-11T23:04:08.667Z,4.18
2022-10-11T23:08:10.638Z,4.40
2022-10-11T23:12:13.800Z,5.35
2022-10-11T23:16:15.727Z,3.28
2022-10-11T23:20:17.445Z,4.28
2022-10-11T23:24:19.120Z,3.70
2022-10-11T23:28:20.827Z,4.65
2022-10-11T23:32:22.971Z,7.15
2022-10-11T23:36:26.252Z,7.32
2022-10-11T23:40:28.277Z,5.97
2022-10-11T23:44:29.928Z,6.45
2022-10-11T23:48:31.576Z,5.55
2022-10-11T23:52:33.385Z,6.78
2022-10-11T23:56:35.011Z,7.05
